createdAt,value
2023-04-16T00:00:19.178Z,101345.91
2023-04-16T00:02:45.883Z,101295.56
2023-04-16T00:05:14.420Z,101334.53
2023-04-16T00:07:41.040Z,101360.06
2023-04-16T00:10:07.946Z,101345.09
2023-04-16T00:12:34.294Z,101339.84
2023-04-16T00:15:00.614Z,101314.63
2023-04-16T00:17:26.979Z,101316.31
2023-04-16T00:19:53.397Z,101331.94
2023-04-16T00:22:19.781Z,101318.06
2023-04-16T00:24:46.178Z,101342.41
2023-04-16T00:27:12.585Z,101333.72
2023-04-16T00:29:39.040Z,101308.66
2023-04-16T00:32:06.203Z,101301.78
2023-04-16T00:34:32.663Z,101332.94
2023-04-16T00:36:59.478Z,101292.88
2023-04-16T00:39:25.893Z,101320.69
2023-04-16T00:41:52.373Z,101283.56
2023-04-16T00:44:18.782Z,101225.50
2023-04-16T00:46:45.997Z,101328.59
2023-04-16T00:49:12.659Z,101321.63
2023-04-16T00:51:39.109Z,101316.47
2023-04-16T00:54:06.397Z,101303.38
2023-04-16T00:56:33.298Z,101326.91
2023-04-16T00:58:59.743Z,101344.38
2023-04-16T01:01:26.130Z,101329.56
2023-04-16T01:03:52.807Z,101345.28
2023-04-16T01:06:19.440Z,101214.41
2023-04-16T01:08:47.111Z,101351.56
2023-04-16T01:11:15.027Z,101250.75
2023-04-16T01:13:41.509Z,101186.78
2023-04-16T01:16:10.330Z,101245.84
2023-04-16T01:18:37.669Z,101359.97
2023-04-16T01:21:05.004Z,101359.31
2023-04-16T01:23:31.575Z,101269.91
2023-04-16T01:25:58.005Z,101247.31
2023-04-16T01:28:24.438Z,101353.06
2023-04-16T01:30:50.858Z,101333.31
2023-04-16T01:33:18.533Z,101335.84
2023-04-16T01:35:45.267Z,101332.31
2023-04-16T01:38:11.813Z,101311.44
2023-04-16T01:40:38.299Z,101344.34
2023-04-16T01:43:04.707Z,101302.75
2023-04-16T01:45:31.974Z,101269.91
2023-04-16T01:47:58.556Z,101249.06
2023-04-16T01:50:25.058Z,101319.19
2023-04-16T01:52:51.426Z,101333.03
2023-04-16T01:55:18.025Z,101294.06
2023-04-16T01:57:44.471Z,101248.16
2023-04-16T02:00:11.261Z,101242.03
2023-04-16T02:02:37.897Z,101299.34
2023-04-16T02:05:04.644Z,101231.75
2023-04-16T02:07:31.706Z,101276.91
2023-04-16T02:09:58.247Z,101339.19
2023-04-16T02:12:24.680Z,101341.19
2023-04-16T02:14:51.024Z,101344.63
2023-04-16T02:17:17.676Z,101284.53
2023-04-16T02:19:43.999Z,101335.69
2023-04-16T02:22:10.478Z,101261.16
2023-04-16T02:24:36.838Z,101304.50
2023-04-16T02:27:03.756Z,101311.41
2023-04-16T02:29:31.789Z,101343.34
2023-04-16T02:31:59.533Z,101260.41
2023-04-16T02:34:25.978Z,101340.03
2023-04-16T02:36:52.354Z,101331.22
2023-04-16T02:39:18.690Z,101335.66
2023-04-16T02:41:45.136Z,101355.47
2023-04-16T02:44:11.526Z,101342.63
2023-04-16T02:46:37.888Z,101264.63
2023-04-16T02:49:04.288Z,101302.59
2023-04-16T02:51:30.938Z,101301.81
2023-04-16T02:53:57.282Z,101343.38
2023-04-16T02:56:23.618Z,101319.22
2023-04-16T02:58:50.232Z,101264.56
2023-04-16T03:01:17.991Z,101253.44
2023-04-16T03:03:44.475Z,101302.81
2023-04-16T03:06:11.503Z,101340.06
2023-04-16T03:08:37.946Z,101341.00
2023-04-16T03:11:04.358Z,101295.03
2023-04-16T03:13:30.828Z,101316.69
2023-04-16T03:15:57.181Z,101256.09
2023-04-16T03:18:23.582Z,101343.75
2023-04-16T03:20:54.177Z,101372.16
2023-04-16T03:23:20.646Z,101363.56
2023-04-16T03:25:47.940Z,101367.06
2023-04-16T03:28:14.942Z,101348.09
2023-04-16T03:30:41.383Z,101226.50
2023-04-16T03:33:07.793Z,101343.88
2023-04-16T03:35:34.237Z,101311.72
2023-04-16T03:38:00.589Z,101362.88
2023-04-16T03:40:26.950Z,101374.03
2023-04-16T03:42:53.496Z,101358.47
2023-04-16T03:45:19.936Z,101370.63
2023-04-16T03:47:48.526Z,101261.47
2023-04-16T03:50:14.913Z,101280.47
2023-04-16T03:52:41.348Z,101365.59
2023-04-16T03:55:08.177Z,101270.19
2023-04-16T03:57:34.591Z,101362.03
2023-04-16T04:00:01.078Z,101339.44
2023-04-16T04:02:27.686Z,101344.69
2023-04-16T04:04:54.343Z,101383.00
2023-04-16T04:07:20.763Z,101369.03
2023-04-16T04:09:47.160Z,101344.72
2023-04-16T04:12:13.625Z,101340.34
2023-04-16T04:14:40.107Z,101270.06
2023-04-16T04:17:07.215Z,101387.88
2023-04-16T04:19:33.725Z,101351.50
2023-04-16T04:22:00.293Z,101221.34
2023-04-16T04:24:27.039Z,101273.53
2023-04-16T04:26:53.359Z,101368.09
2023-04-16T04:29:19.675Z,101262.16
2023-04-16T04:31:46.088Z,101367.16
2023-04-16T04:34:12.485Z,101363.56
2023-04-16T04:36:38.836Z,101302.97
2023-04-16T04:39:05.465Z,101396.63
2023-04-16T04:41:31.881Z,101374.06
2023-04-16T04:43:58.250Z,101372.28
2023-04-16T04:46:24.684Z,101318.59
2023-04-16T04:48:51.211Z,101362.75
2023-04-16T04:51:17.720Z,101388.69
2023-04-16T04:53:44.104Z,101394.03
2023-04-16T04:56:12.737Z,101344.53
2023-04-16T04:58:40.637Z,101382.69
2023-04-16T05:01:07.048Z,101379.22
2023-04-16T05:03:33.504Z,101294.31
2023-04-16T05:05:59.972Z,101417.50
2023-04-16T05:08:26.295Z,101397.41
2023-04-16T05:10:52.757Z,101374.00
2023-04-16T05:13:19.102Z,101309.94
2023-04-16T05:15:46.046Z,101417.50
2023-04-16T05:18:12.461Z,101396.66
2023-04-16T05:20:38.778Z,101395.75
2023-04-16T05:23:05.280Z,101394.78
2023-04-16T05:25:31.651Z,101380.16
2023-04-16T05:27:58.039Z,101379.38
2023-04-16T05:30:24.414Z,101338.50
2023-04-16T05:32:51.627Z,101373.31
2023-04-16T05:35:18.007Z,101415.63
2023-04-16T05:37:44.332Z,101421.69
2023-04-16T05:40:13.335Z,101420.91
2023-04-16T05:42:39.785Z,101372.38
2023-04-16T05:45:06.942Z,101445.31
2023-04-16T05:47:33.351Z,101439.97
2023-04-16T05:49:59.721Z,101339.28
2023-04-16T05:52:26.133Z,101452.13
2023-04-16T05:54:52.501Z,101409.81
2023-04-16T05:57:18.823Z,101458.25
2023-04-16T05:59:45.217Z,101375.91
2023-04-16T06:02:11.685Z,101448.78
2023-04-16T06:04:38.072Z,101434.75
2023-04-16T06:07:04.448Z,101440.13
2023-04-16T06:09:30.810Z,101450.44
2023-04-16T06:11:57.891Z,101447.03
2023-04-16T06:14:24.263Z,101400.13
2023-04-16T06:16:50.980Z,101437.44
2023-04-16T06:19:17.378Z,101469.63
2023-04-16T06:21:43.971Z,101457.53
2023-04-16T06:24:10.569Z,101441.91
2023-04-16T06:26:36.988Z,101365.56
2023-04-16T06:29:03.334Z,101427.09
2023-04-16T06:31:30.385Z,101370.72
2023-04-16T06:33:56.950Z,101469.59
2023-04-16T06:36:23.305Z,101405.38
2023-04-16T06:38:49.656Z,101376.81
2023-04-16T06:41:16.120Z,101474.78
2023-04-16T06:43:42.500Z,101388.09
2023-04-16T06:46:08.900Z,101459.28
2023-04-16T06:48:35.246Z,101439.41
2023-04-16T06:51:01.861Z,101388.16
2023-04-16T06:53:28.445Z,101464.53
2023-04-16T06:55:54.784Z,101384.66
2023-04-16T06:58:22.264Z,101485.25
2023-04-16T07:00:48.762Z,101483.41
2023-04-16T07:03:15.431Z,101463.56
2023-04-16T07:05:42.001Z,101495.66
2023-04-16T07:08:08.404Z,101464.44
2023-04-16T07:10:34.850Z,101461.81
2023-04-16T07:13:01.612Z,101492.19
2023-04-16T07:15:28.805Z,101469.66
2023-04-16T07:17:55.267Z,101478.19
2023-04-16T07:20:21.764Z,101428.63
2023-04-16T07:22:49.291Z,101491.97
2023-04-16T07:25:16.710Z,101407.19
2023-04-16T07:27:43.125Z,101411.63
2023-04-16T07:30:09.712Z,101500.88
2023-04-16T07:32:36.254Z,101498.13
2023-04-16T07:35:03.766Z,101443.63
2023-04-16T07:37:31.033Z,101514.81
2023-04-16T07:39:57.854Z,101526.84
2023-04-16T07:42:24.476Z,101431.38
2023-04-16T07:44:51.156Z,101531.34
2023-04-16T07:47:17.643Z,101511.19
2023-04-16T07:49:44.033Z,101408.13
2023-04-16T07:52:10.493Z,101546.13
2023-04-16T07:54:36.861Z,101549.59
2023-04-16T07:57:03.377Z,101549.53
2023-04-16T07:59:29.989Z,101547.72
2023-04-16T08:01:56.896Z,101533.91
2023-04-16T08:04:25.779Z,101447.16
2023-04-16T08:06:53.263Z,101566.88
2023-04-16T08:09:21.491Z,101565.25
2023-04-16T08:11:49.815Z,101412.41
2023-04-16T08:14:16.947Z,101567.00
2023-04-16T08:16:43.465Z,101542.53
2023-04-16T08:19:09.979Z,101552.94
2023-04-16T08:21:36.799Z,101450.47
2023-04-16T08:24:03.246Z,101510.34
2023-04-16T08:26:29.674Z,101572.03
2023-04-16T08:28:56.015Z,101528.00
2023-04-16T08:31:22.503Z,101544.53
2023-04-16T08:33:48.886Z,101566.22
2023-04-16T08:36:15.295Z,101426.47
2023-04-16T08:38:41.650Z,101466.25
2023-04-16T08:41:12.199Z,101579.06
2023-04-16T08:43:44.309Z,101512.31
2023-04-16T08:46:19.125Z,101513.19
2023-04-16T08:48:50.513Z,101573.94
2023-04-16T08:51:19.317Z,101615.56
2023-04-16T08:53:53.196Z,101610.38
2023-04-16T08:56:26.484Z,101533.75
2023-04-16T08:58:54.900Z,101592.50
2023-04-16T09:01:21.554Z,101545.47
2023-04-16T09:03:48.784Z,101466.41
2023-04-16T09:06:16.363Z,101594.75
2023-04-16T09:08:46.470Z,101455.16
2023-04-16T09:11:21.897Z,101504.69
2023-04-16T09:13:48.230Z,101576.53
2023-04-16T09:16:15.219Z,101606.06
2023-04-16T09:18:41.820Z,101623.28
2023-04-16T09:21:10.400Z,101581.56
2023-04-16T09:23:38.701Z,101616.25
2023-04-16T09:26:06.242Z,101614.41
2023-04-16T09:28:43.718Z,101504.97
2023-04-16T09:31:12.769Z,101586.72
2023-04-16T09:33:39.271Z,101624.16
2023-04-16T09:36:06.862Z,101509.53
2023-04-16T09:38:49.897Z,101597.09
2023-04-16T09:41:16.618Z,101593.78
2023-04-16T09:44:00.681Z,101611.38
2023-04-16T09:47:05.478Z,101632.03
2023-04-16T09:49:34.804Z,101612.09
2023-04-16T09:52:02.232Z,101610.59
2023-04-16T09:54:28.775Z,101627.13
2023-04-16T09:56:56.922Z,101647.81
2023-04-16T09:59:24.161Z,101639.97
2023-04-16T10:01:53.328Z,101556.69
2023-04-16T10:04:50.746Z,101642.53
2023-04-16T10:07:18.275Z,101597.09
2023-04-16T10:09:44.753Z,101534.63
2023-04-16T10:12:12.738Z,101430.34
2023-04-16T10:14:40.264Z,101506.50
2023-04-16T10:17:07.727Z,101566.31
2023-04-16T10:19:35.352Z,101614.41
2023-04-16T10:22:02.860Z,101641.19
2023-04-16T10:24:31.115Z,101633.44
2023-04-16T10:26:58.219Z,101504.19
2023-04-16T10:29:26.056Z,101630.84
2023-04-16T10:31:53.485Z,101535.03
2023-04-16T10:34:21.003Z,101533.59
2023-04-16T10:36:55.440Z,101642.28
2023-04-16T10:39:23.478Z,101624.28
2023-04-16T10:41:51.309Z,101602.00
2023-04-16T10:44:19.138Z,101635.38
2023-04-16T10:46:52.128Z,101488.56
2023-04-16T10:49:22.955Z,101588.88
2023-04-16T10:52:00.224Z,101587.22
2023-04-16T10:54:29.068Z,101529.81
2023-04-16T10:57:19.889Z,101617.81
2023-04-16T10:59:48.634Z,101624.69
2023-04-16T11:02:17.430Z,101617.97
2023-04-16T11:04:45.775Z,101618.16
2023-04-16T11:07:15.396Z,101623.31
2023-04-16T11:09:52.822Z,101626.56
2023-04-16T11:12:22.318Z,101548.56
2023-04-16T11:14:53.722Z,101611.28
2023-04-16T11:17:21.601Z,101602.63
2023-04-16T11:19:48.433Z,101622.94
2023-04-16T11:22:17.448Z,101541.72
2023-04-16T11:24:45.559Z,101504.25
2023-04-16T11:27:13.783Z,101571.56
2023-04-16T11:29:40.270Z,101632.66
2023-04-16T11:32:06.694Z,101615.19
2023-04-16T11:34:33.220Z,101595.41
2023-04-16T11:36:59.812Z,101610.19
2023-04-16T11:39:26.268Z,101487.59
2023-04-16T11:41:53.884Z,101604.28
2023-04-16T11:44:25.405Z,101541.97
2023-04-16T11:46:53.534Z,101600.25
2023-04-16T11:49:30.277Z,101590.69
2023-04-16T11:51:57.044Z,101622.59
2023-04-16T11:54:24.526Z,101461.97
2023-04-16T11:56:52.926Z,101623.66
2023-04-16T11:59:22.704Z,101625.50
2023-04-16T12:01:52.043Z,101587.91
2023-04-16T12:04:24.800Z,101624.31
2023-04-16T12:07:07.841Z,101621.34
2023-04-16T12:09:37.922Z,101525.28
2023-04-16T12:12:06.714Z,101491.31
2023-04-16T12:14:33.179Z,101584.41
2023-04-16T12:17:21.165Z,101623.91
2023-04-16T12:19:52.256Z,101607.41
2023-04-16T12:22:27.685Z,101612.75
2023-04-16T12:25:04.776Z,101639.59
2023-04-16T12:27:53.732Z,101621.47
2023-04-16T12:30:24.917Z,101597.28
2023-04-16T12:33:10.540Z,101606.38
2023-04-16T12:35:37.015Z,101614.19
2023-04-16T12:38:03.561Z,101628.47
2023-04-16T12:40:30.086Z,101622.88
2023-04-16T12:42:56.557Z,101552.94
2023-04-16T12:45:25.156Z,101524.78
2023-04-16T12:47:51.904Z,101614.03
2023-04-16T12:50:18.399Z,101619.13
2023-04-16T12:52:45.038Z,101601.84
2023-04-16T12:55:12.399Z,101624.22
2023-04-16T12:57:38.753Z,101628.34
2023-04-16T13:00:06.644Z,101617.69
2023-04-16T13:02:33.121Z,101603.00
2023-04-16T13:04:59.689Z,101597.53
2023-04-16T13:07:26.750Z,101527.81
2023-04-16T13:09:53.190Z,101501.97
2023-04-16T13:12:22.081Z,101603.34
2023-04-16T13:14:48.519Z,101613.22
2023-04-16T13:17:15.368Z,101560.50
2023-04-16T13:19:41.788Z,101546.22
2023-04-16T13:22:09.699Z,101600.47
2023-04-16T13:24:36.246Z,101564.41
2023-04-16T13:27:02.674Z,101614.56
2023-04-16T13:29:29.919Z,101601.66
2023-04-16T13:31:57.503Z,101622.53
2023-04-16T13:34:23.886Z,101610.09
2023-04-16T13:36:50.318Z,101526.66
2023-04-16T13:39:17.575Z,101598.81
2023-04-16T13:41:45.161Z,101471.41
2023-04-16T13:44:11.527Z,101649.31
2023-04-16T13:46:38.026Z,101597.25
2023-04-16T13:49:06.987Z,101611.03
2023-04-16T13:51:33.793Z,101464.25
2023-04-16T13:54:00.230Z,101582.38
2023-04-16T13:56:26.652Z,101640.47
2023-04-16T13:58:53.342Z,101619.94
2023-04-16T14:01:20.002Z,101527.19
2023-04-16T14:03:46.637Z,101533.31
2023-04-16T14:06:13.724Z,101611.47
2023-04-16T14:08:40.158Z,101574.13
2023-04-16T14:11:06.660Z,101507.94
2023-04-16T14:13:34.827Z,101611.72
2023-04-16T14:16:02.409Z,101596.00
2023-04-16T14:18:28.768Z,101471.81
2023-04-16T14:20:55.648Z,101573.03
2023-04-16T14:23:24.227Z,101596.44
2023-04-16T14:25:50.684Z,101588.59
2023-04-16T14:28:17.462Z,101478.34
2023-04-16T14:30:43.983Z,101468.84
2023-04-16T14:33:15.315Z,101456.34
2023-04-16T14:35:41.716Z,101505.56
2023-04-16T14:38:08.509Z,101562.31
2023-04-16T14:40:35.212Z,101598.72
2023-04-16T14:43:01.579Z,101505.69
2023-04-16T14:45:29.958Z,101602.78
2023-04-16T14:47:57.026Z,101613.28
2023-04-16T14:50:23.496Z,101448.59
2023-04-16T14:52:50.720Z,101616.88
2023-04-16T14:55:19.766Z,101546.09
2023-04-16T14:57:46.830Z,101562.31
2023-04-16T15:00:17.099Z,101504.75
2023-04-16T15:02:43.677Z,101543.03
2023-04-16T15:05:10.634Z,101523.97
2023-04-16T15:07:37.356Z,101389.22
2023-04-16T15:10:04.310Z,101576.94
2023-04-16T15:12:30.800Z,101580.00
2023-04-16T15:14:57.307Z,101489.50
2023-04-16T15:17:23.896Z,101469.00
2023-04-16T15:19:52.123Z,101533.25
2023-04-16T15:22:18.574Z,101585.47
2023-04-16T15:24:45.127Z,101586.34
2023-04-16T15:27:13.759Z,101570.50
2023-04-16T15:29:42.896Z,101585.03
2023-04-16T15:32:09.458Z,101566.59
2023-04-16T15:34:35.912Z,101518.06
2023-04-16T15:37:02.346Z,101561.22
2023-04-16T15:39:28.788Z,101600.69
2023-04-16T15:42:01.536Z,101527.16
2023-04-16T15:44:30.959Z,101528.41
2023-04-16T15:46:57.505Z,101532.00
2023-04-16T15:49:24.714Z,101576.78
2023-04-16T15:51:52.043Z,101541.53
2023-04-16T15:54:18.668Z,101471.16
2023-04-16T15:56:46.541Z,101547.53
2023-04-16T15:59:13.387Z,101582.28
2023-04-16T16:01:40.219Z,101546.88
2023-04-16T16:04:09.336Z,101518.66
2023-04-16T16:06:38.099Z,101567.22
2023-04-16T16:09:04.959Z,101580.69
2023-04-16T16:11:32.804Z,101538.97
2023-04-16T16:14:02.897Z,101529.50
2023-04-16T16:16:29.743Z,101654.19
2023-04-16T16:18:56.567Z,101602.69
2023-04-16T16:21:23.306Z,101529.72
2023-04-16T16:23:50.022Z,101552.91
2023-04-16T16:26:20.290Z,101471.06
2023-04-16T16:28:47.998Z,101398.38
2023-04-16T16:31:14.724Z,101573.47
2023-04-16T16:33:41.180Z,101517.94
2023-04-16T16:36:11.419Z,101486.88
2023-04-16T16:38:39.943Z,101555.25
2023-04-16T16:41:07.280Z,101587.66
2023-04-16T16:43:35.517Z,101437.31
2023-04-16T16:46:02.295Z,101515.28
2023-04-16T16:48:29.401Z,101624.38
2023-04-16T16:50:56.471Z,101603.38
2023-04-16T16:53:23.141Z,101577.25
2023-04-16T16:55:49.611Z,101581.56
2023-04-16T16:58:19.919Z,101635.34
2023-04-16T17:00:48.496Z,101554.69
2023-04-16T17:03:15.841Z,101634.47
2023-04-16T17:05:42.624Z,101556.19
2023-04-16T17:08:09.086Z,101598.69
2023-04-16T17:10:35.910Z,101531.00
2023-04-16T17:13:02.412Z,101627.28
2023-04-16T17:15:28.921Z,101573.47
2023-04-16T17:17:55.415Z,101622.94
2023-04-16T17:20:22.201Z,101647.16
2023-04-16T17:22:48.634Z,101644.47
2023-04-16T17:25:15.564Z,101635.69
2023-04-16T17:27:41.989Z,101521.53
2023-04-16T17:30:08.939Z,101661.19
2023-04-16T17:32:35.987Z,101583.00
2023-04-16T17:35:04.168Z,101455.56
2023-04-16T17:37:30.998Z,101587.66
2023-04-16T17:39:57.381Z,101557.41
2023-04-16T17:42:24.494Z,101655.28
2023-04-16T17:44:53.164Z,101662.47
2023-04-16T17:47:19.598Z,101629.81
2023-04-16T17:49:46.153Z,101594.09
2023-04-16T17:52:12.564Z,101636.47
2023-04-16T17:54:38.904Z,101670.78
2023-04-16T17:57:07.373Z,101637.44
2023-04-16T17:59:34.491Z,101599.47
2023-04-16T18:02:01.875Z,101682.63
2023-04-16T18:04:28.674Z,101688.03
2023-04-16T18:06:55.207Z,101622.28
2023-04-16T18:09:21.760Z,101583.94
2023-04-16T18:11:48.405Z,101691.63
2023-04-16T18:14:19.679Z,101568.13
2023-04-16T18:16:47.511Z,101562.97
2023-04-16T18:19:17.099Z,101567.81
2023-04-16T18:21:43.659Z,101575.44
2023-04-16T18:24:10.643Z,101639.78
2023-04-16T18:26:37.662Z,101711.41
2023-04-16T18:29:04.645Z,101676.22
2023-04-16T18:31:31.308Z,101633.16
2023-04-16T18:33:58.562Z,101689.41
2023-04-16T18:36:26.585Z,101624.25
2023-04-16T18:39:01.520Z,101635.47
2023-04-16T18:41:44.782Z,101633.72
2023-04-16T18:44:11.363Z,101572.53
2023-04-16T18:46:37.853Z,101631.59
2023-04-16T18:49:04.381Z,101586.28
2023-04-16T18:51:30.853Z,101632.41
2023-04-16T18:53:57.291Z,101554.22
2023-04-16T18:56:23.771Z,101611.53
2023-04-16T18:58:50.156Z,101695.72
2023-04-16T19:01:16.828Z,101720.09
2023-04-16T19:03:43.367Z,101647.38
2023-04-16T19:06:09.882Z,101671.63
2023-04-16T19:08:36.612Z,101591.63
2023-04-16T19:11:03.074Z,101647.41
2023-04-16T19:13:30.452Z,101607.50
2023-04-16T19:16:04.906Z,101659.03
2023-04-16T19:18:31.675Z,101685.06
2023-04-16T19:21:01.547Z,101677.34
2023-04-16T19:23:30.356Z,101758.97
2023-04-16T19:25:57.025Z,101663.19
2023-04-16T19:28:24.415Z,101722.25
2023-04-16T19:30:51.652Z,101717.31
2023-04-16T19:33:18.823Z,101625.16
2023-04-16T19:35:48.531Z,101580.06
2023-04-16T19:38:15.071Z,101736.41
2023-04-16T19:40:47.821Z,101701.69
2023-04-16T19:43:14.773Z,101705.25
2023-04-16T19:45:44.530Z,101586.38
2023-04-16T19:48:11.348Z,101595.06
2023-04-16T19:50:44.445Z,101715.84
2023-04-16T19:53:14.614Z,101538.69
2023-04-16T19:55:41.719Z,101664.44
2023-04-16T19:58:09.106Z,101755.00
2023-04-16T20:00:42.574Z,101538.81
2023-04-16T20:03:09.564Z,101707.28
2023-04-16T20:05:36.499Z,101584.69
2023-04-16T20:08:02.970Z,101544.72
2023-04-16T20:10:32.644Z,101619.31
2023-04-16T20:12:59.183Z,101684.53
2023-04-16T20:15:25.742Z,101673.25
2023-04-16T20:17:52.367Z,101596.81
2023-04-16T20:20:19.101Z,101686.13
2023-04-16T20:22:45.865Z,101722.78
2023-04-16T20:25:14.303Z,101628.19
2023-04-16T20:27:40.742Z,101671.63
2023-04-16T20:30:08.785Z,101636.81
2023-04-16T20:32:35.351Z,101735.03
2023-04-16T20:35:02.012Z,101601.16
2023-04-16T20:37:29.116Z,101684.91
2023-04-16T20:39:56.222Z,101730.16
2023-04-16T20:42:32.301Z,101613.78
2023-04-16T20:45:00.649Z,101639.66
2023-04-16T20:47:27.252Z,101733.56
2023-04-16T20:49:54.846Z,101658.91
2023-04-16T20:52:25.474Z,101721.50
2023-04-16T20:54:52.316Z,101573.84
2023-04-16T20:57:18.968Z,101673.75
2023-04-16T20:59:45.516Z,101753.03
2023-04-16T21:02:11.997Z,101602.34
2023-04-16T21:04:38.479Z,101686.88
2023-04-16T21:07:05.285Z,101678.00
2023-04-16T21:09:31.706Z,101709.31
2023-04-16T21:11:58.300Z,101635.53
2023-04-16T21:14:24.817Z,101656.47
2023-04-16T21:16:51.363Z,101752.91
2023-04-16T21:19:17.734Z,101544.34
2023-04-16T21:21:44.193Z,101754.69
2023-04-16T21:24:10.779Z,101743.34
2023-04-16T21:26:39.414Z,101626.16
2023-04-16T21:29:05.882Z,101755.66
2023-04-16T21:31:32.424Z,101537.47
2023-04-16T21:33:58.830Z,101686.78
2023-04-16T21:36:27.652Z,101724.50
2023-04-16T21:38:54.036Z,101666.13
2023-04-16T21:41:20.533Z,101660.75
2023-04-16T21:43:46.882Z,101717.34
2023-04-16T21:46:13.351Z,101717.31
2023-04-16T21:48:39.753Z,101722.53
2023-04-16T21:51:11.422Z,101652.13
2023-04-16T21:53:38.990Z,101671.16
2023-04-16T21:56:06.356Z,101749.47
2023-04-16T21:58:32.800Z,101679.91
2023-04-16T22:01:00.391Z,101763.31
2023-04-16T22:03:30.268Z,101749.41
2023-04-16T22:06:03.206Z,101629.47
2023-04-16T22:08:29.956Z,101752.84
2023-04-16T22:10:58.191Z,101763.41
2023-04-16T22:13:26.019Z,101747.69
2023-04-16T22:15:53.089Z,101623.47
2023-04-16T22:18:19.451Z,101732.13
2023-04-16T22:20:47.180Z,101748.00
2023-04-16T22:23:14.022Z,101724.44
2023-04-16T22:25:40.510Z,101676.66
2023-04-16T22:28:07.101Z,101638.47
2023-04-16T22:30:33.471Z,101660.97
2023-04-16T22:32:59.907Z,101533.38
2023-04-16T22:35:26.406Z,101648.06
2023-04-16T22:37:52.832Z,101600.31
2023-04-16T22:40:19.294Z,101734.09
2023-04-16T22:42:45.868Z,101761.94
2023-04-16T22:45:15.491Z,101735.84
2023-04-16T22:47:41.883Z,101674.28
2023-04-16T22:50:08.788Z,101609.09
2023-04-16T22:52:35.355Z,101707.94
2023-04-16T22:55:01.832Z,101721.91
2023-04-16T22:57:28.214Z,101741.03
2023-04-16T22:59:54.550Z,101736.75
2023-04-16T23:02:21.425Z,101648.00
2023-04-16T23:04:48.091Z,101723.63
2023-04-16T23:07:15.008Z,101754.00
2023-04-16T23:09:41.608Z,101760.03
2023-04-16T23:12:08.642Z,101728.75
2023-04-16T23:14:35.222Z,101637.44
2023-04-16T23:17:01.841Z,101615.88
2023-04-16T23:19:31.633Z,101624.44
2023-04-16T23:21:58.078Z,101693.16
2023-04-16T23:24:24.585Z,101722.81
2023-04-16T23:26:52.424Z,101710.47
2023-04-16T23:29:19.254Z,101720.97
2023-04-16T23:31:45.782Z,101661.03
2023-04-16T23:34:12.181Z,101635.00
2023-04-16T23:36:39.211Z,101650.63
2023-04-16T23:39:05.630Z,101737.53
2023-04-16T23:41:32.105Z,101602.75
2023-04-16T23:43:58.494Z,101598.47
2023-04-16T23:46:25.061Z,101608.91
2023-04-16T23:48:54.478Z,101487.28
2023-04-16T23:51:20.920Z,101735.00
2023-04-16T23:53:49.662Z,101735.78
2023-04-16T23:56:16.834Z,101714.88
2023-04-16T23:58:43.401Z,101728.66
